Terminal Aerodrome Forecast
Issued by NWS Mt. Holly, NJ

Home | Current Version | Previous Version | Text Only | Print | Product List | Glossary On
Versions: 1 2 3 4 5 6 7 8 9 10 11 12 13 14 15 16 17 18 19 20 21 22 23
961
FTUS41 KPHI 301120
TAFACY
TAF
KACY 301120Z 3012/0112 03006KT P6SM OVC035
      TEMPO 3012/3014 OVC025
     FM301800 06009KT P6SM BKN035
     FM302100 10008KT P6SM SCT250
     FM010600 11003KT P6SM -RA SCT025 BKN040
     FM011000 09009KT 5SM -RA SCT008 BKN015=

USA.gov is the U.S. government's official web portal to all federal, state and local government web resources and services.